createdAt,value
2023-03-25T00:00:53.245Z,8.76
2023-03-25T00:05:54.638Z,8.75
2023-03-25T00:10:55.936Z,8.75
2023-03-25T00:15:58.338Z,8.66
2023-03-25T00:20:59.545Z,8.46
2023-03-25T00:26:00.779Z,8.43
2023-03-25T00:31:02.021Z,8.58
2023-03-25T00:36:05.300Z,8.68
2023-03-25T00:41:06.840Z,8.70
2023-03-25T00:46:08.170Z,8.72
2023-03-25T00:51:10.177Z,8.75
2023-03-25T00:56:12.304Z,8.79
2023-03-25T01:01:13.963Z,8.84
2023-03-25T01:06:15.313Z,8.90
2023-03-25T01:11:16.561Z,8.92
2023-03-25T01:16:17.788Z,8.95
2023-03-25T01:21:18.945Z,8.94
2023-03-25T01:26:20.346Z,8.93
2023-03-25T01:31:23.140Z,8.91
2023-03-25T01:36:24.661Z,8.93
2023-03-25T01:41:29.188Z,8.94
2023-03-25T01:46:37.338Z,8.94
2023-03-25T01:51:38.617Z,8.94
2023-03-25T01:56:39.908Z,8.92
2023-03-25T02:01:41.096Z,8.92
2023-03-25T02:06:42.293Z,8.91
2023-03-25T02:11:43.496Z,8.89
2023-03-25T02:16:44.823Z,8.88
2023-03-25T02:21:50.046Z,8.82
2023-03-25T02:26:56.262Z,8.70
2023-03-25T02:31:57.439Z,8.57
2023-03-25T02:36:58.725Z,8.47
2023-03-25T02:41:59.968Z,8.43
2023-03-25T02:47:01.543Z,8.43
2023-03-25T02:52:02.778Z,8.45
2023-03-25T02:57:05.418Z,8.45
2023-03-25T03:02:08.025Z,8.46
2023-03-25T03:07:09.216Z,8.48
2023-03-25T03:12:10.369Z,8.49
2023-03-25T03:17:11.603Z,8.47
2023-03-25T03:22:14.930Z,8.46
2023-03-25T03:27:16.484Z,8.42
2023-03-25T03:32:18.631Z,8.43
2023-03-25T03:37:20.362Z,8.44
2023-03-25T03:42:21.578Z,8.46
2023-03-25T03:47:23.041Z,8.51
2023-03-25T03:52:25.545Z,8.54
2023-03-25T03:57:26.999Z,8.54
2023-03-25T04:02:28.318Z,8.54
2023-03-25T04:07:29.560Z,8.54
2023-03-25T04:12:30.733Z,8.48
2023-03-25T04:17:33.032Z,8.43
2023-03-25T04:22:34.292Z,8.42
2023-03-25T04:27:37.666Z,8.40
2023-03-25T04:32:38.890Z,8.40
2023-03-25T04:37:41.591Z,8.41
2023-03-25T04:42:43.883Z,8.43
2023-03-25T04:47:46.782Z,8.44
2023-03-25T04:52:48.065Z,8.45
2023-03-25T04:57:49.259Z,8.46
2023-03-25T05:02:50.415Z,8.51
2023-03-25T05:07:51.672Z,8.49
2023-03-25T05:12:52.807Z,8.48
2023-03-25T05:17:54.005Z,8.52
2023-03-25T05:22:57.518Z,8.49
2023-03-25T05:27:58.751Z,8.53
2023-03-25T05:33:00.236Z,8.49
2023-03-25T05:38:01.807Z,8.51
2023-03-25T05:43:03.114Z,8.56
2023-03-25T05:48:04.884Z,8.60
2023-03-25T05:53:06.165Z,8.63
2023-03-25T05:58:07.368Z,8.63
2023-03-25T06:03:08.803Z,8.69
2023-03-25T06:08:11.054Z,8.71
2023-03-25T06:13:12.287Z,8.79
2023-03-25T06:18:13.868Z,8.76
2023-03-25T06:23:15.683Z,8.76
2023-03-25T06:28:18.610Z,8.67
2023-03-25T06:33:42.335Z,8.36
2023-03-25T06:38:41.095Z,8.13
2023-03-25T06:43:42.371Z,8.04
2023-03-25T06:48:43.546Z,8.05
2023-03-25T06:53:44.818Z,8.10
2023-03-25T06:58:46.125Z,8.17
2023-03-25T07:03:47.313Z,8.35
2023-03-25T07:08:48.476Z,8.45
2023-03-25T07:13:53.712Z,8.53
2023-03-25T07:18:56.562Z,8.59
2023-03-25T07:23:57.778Z,8.59
2023-03-25T07:28:58.956Z,8.65
2023-03-25T07:34:00.636Z,8.74
2023-03-25T07:39:01.797Z,8.85
2023-03-25T07:44:03.012Z,8.92
2023-03-25T07:49:04.209Z,8.92
2023-03-25T07:54:06.346Z,8.88
2023-03-25T07:59:07.761Z,8.87
2023-03-25T08:04:09.031Z,8.86
2023-03-25T08:09:10.254Z,8.93
2023-03-25T08:14:11.423Z,8.98
2023-03-25T08:19:12.620Z,9.04
2023-03-25T08:24:13.807Z,9.04
2023-03-25T08:29:17.322Z,9.08
2023-03-25T08:34:18.530Z,9.10
2023-03-25T08:39:22.027Z,9.17
2023-03-25T08:44:23.174Z,9.19
2023-03-25T08:49:24.474Z,9.22
2023-03-25T08:54:26.097Z,9.41
2023-03-25T08:59:28.231Z,9.54
2023-03-25T09:04:30.795Z,9.53
2023-03-25T09:09:31.972Z,9.68
2023-03-25T09:14:33.139Z,9.71
2023-03-25T09:19:34.475Z,9.84
2023-03-25T09:24:35.917Z,10.22
2023-03-25T09:29:37.112Z,10.67
2023-03-25T09:34:39.096Z,10.80
2023-03-25T09:39:40.273Z,10.94
2023-03-25T09:44:42.713Z,10.65
2023-03-25T09:49:44.069Z,10.95
2023-03-25T09:54:45.328Z,11.00
2023-03-25T09:59:49.667Z,11.10
2023-03-25T10:04:50.921Z,10.94
2023-03-25T10:09:52.129Z,10.84
2023-03-25T10:14:53.356Z,10.71
2023-03-25T10:19:54.594Z,10.82
2023-03-25T10:24:55.884Z,10.73
2023-03-25T10:29:57.075Z,10.73
2023-03-25T10:34:58.953Z,10.60
2023-03-25T10:40:00.135Z,10.20
2023-03-25T10:45:01.806Z,10.23
2023-03-25T10:50:04.496Z,10.30
2023-03-25T10:55:05.683Z,10.29
2023-03-25T11:00:09.057Z,10.37
2023-03-25T11:05:10.318Z,10.55
2023-03-25T11:10:11.592Z,10.62
2023-03-25T11:15:13.206Z,10.81
2023-03-25T11:20:14.501Z,11.66
2023-03-25T11:25:15.641Z,12.41
2023-03-25T11:30:16.812Z,12.07
2023-03-25T11:35:18.476Z,11.51
2023-03-25T11:40:20.819Z,11.22
2023-03-25T11:45:21.971Z,11.29
2023-03-25T11:50:23.582Z,11.28
2023-03-25T11:55:24.745Z,11.14
2023-03-25T12:00:29.352Z,10.89
2023-03-25T12:05:30.811Z,10.91
2023-03-25T12:10:32.180Z,11.06
2023-03-25T12:15:33.494Z,10.99
2023-03-25T12:20:34.658Z,10.89
2023-03-25T12:25:36.048Z,10.85
2023-03-25T12:30:37.356Z,10.90
2023-03-25T12:35:38.591Z,10.95
2023-03-25T12:40:40.097Z,11.15
2023-03-25T12:45:41.825Z,11.25
2023-03-25T12:50:43.045Z,11.63
2023-03-25T12:55:44.298Z,12.86
2023-03-25T13:00:45.578Z,12.70
2023-03-25T13:05:46.832Z,12.41
2023-03-25T13:10:48.105Z,12.37
2023-03-25T13:15:49.274Z,12.43
2023-03-25T13:20:51.581Z,12.26
2023-03-25T13:25:55.809Z,12.08
2023-03-25T13:30:57.354Z,11.89
2023-03-25T13:35:58.590Z,11.54
2023-03-25T13:40:59.992Z,11.15
2023-03-25T13:46:01.598Z,9.61
2023-03-25T13:51:03.038Z,9.17
2023-03-25T13:56:04.232Z,8.77
2023-03-25T14:01:05.476Z,8.46
2023-03-25T14:06:07.248Z,8.84
2023-03-25T14:11:08.409Z,9.22
2023-03-25T14:16:09.678Z,9.01
2023-03-25T14:21:10.943Z,9.06
2023-03-25T14:26:12.147Z,9.02
2023-03-25T14:31:13.370Z,9.64
2023-03-25T14:36:14.548Z,10.54
2023-03-25T14:41:15.737Z,10.77
2023-03-25T14:46:18.340Z,11.12
2023-03-25T14:51:22.370Z,11.24
2023-03-25T14:56:24.594Z,11.29
2023-03-25T15:01:25.862Z,10.91
2023-03-25T15:06:27.166Z,10.86
2023-03-25T15:11:28.371Z,10.99
2023-03-25T15:16:29.764Z,11.10
2023-03-25T15:21:31.179Z,10.91
2023-03-25T15:26:32.444Z,10.51
2023-03-25T15:31:37.914Z,10.10
2023-03-25T15:36:39.724Z,9.94
2023-03-25T15:41:41.237Z,9.73
2023-03-25T15:46:42.467Z,9.54
2023-03-25T15:51:43.730Z,9.51
2023-03-25T15:56:44.991Z,9.61
2023-03-25T16:01:46.256Z,9.70
2023-03-25T16:06:47.412Z,9.65
2023-03-25T16:11:48.625Z,9.56
2023-03-25T16:16:49.886Z,9.20
2023-03-25T16:21:51.046Z,8.74
2023-03-25T16:26:52.725Z,8.69
2023-03-25T16:31:53.976Z,8.85
2023-03-25T16:36:55.278Z,9.01
2023-03-25T16:41:56.461Z,9.06
2023-03-25T16:46:57.651Z,9.11
2023-03-25T16:51:58.833Z,9.17
2023-03-25T16:57:00.030Z,9.17
2023-03-25T17:02:01.382Z,9.16
2023-03-25T17:07:02.669Z,9.17
2023-03-25T17:12:03.877Z,8.97
2023-03-25T17:17:05.120Z,8.29
2023-03-25T17:22:06.492Z,7.97
2023-03-25T17:27:08.001Z,7.77
2023-03-25T17:32:09.462Z,7.69
2023-03-25T17:37:10.654Z,7.74
2023-03-25T17:42:12.057Z,7.86
2023-03-25T17:47:13.197Z,7.97
2023-03-25T17:52:14.424Z,8.09
2023-03-25T17:57:15.818Z,8.06
2023-03-25T18:02:17.033Z,7.93
2023-03-25T18:07:21.146Z,7.82
2023-03-25T18:12:22.316Z,7.57
2023-03-25T18:17:23.581Z,7.31
2023-03-25T18:22:24.828Z,7.15
2023-03-25T18:27:36.851Z,7.13
2023-03-25T18:32:42.379Z,7.15
2023-03-25T18:37:43.709Z,7.26
2023-03-25T18:42:44.993Z,7.33
2023-03-25T18:47:46.293Z,7.36
2023-03-25T18:52:47.514Z,7.49
2023-03-25T18:57:48.728Z,7.65
2023-03-25T19:02:50.136Z,7.56
2023-03-25T19:07:51.387Z,7.56
2023-03-25T19:12:52.624Z,7.57
2023-03-25T19:17:53.920Z,7.58
2023-03-25T19:22:55.665Z,7.58
2023-03-25T19:27:56.940Z,7.56
2023-03-25T19:32:58.258Z,7.44
2023-03-25T19:38:03.305Z,7.44
2023-03-25T19:43:07.517Z,7.33
2023-03-25T19:48:08.783Z,7.28
2023-03-25T19:53:10.338Z,7.27
2023-03-25T19:58:12.085Z,7.41
2023-03-25T20:03:13.618Z,7.61
2023-03-25T20:08:14.959Z,7.78
2023-03-25T20:13:16.223Z,7.94
2023-03-25T20:18:17.596Z,7.98
2023-03-25T20:23:18.721Z,8.03
2023-03-25T20:28:19.976Z,8.09
2023-03-25T20:33:21.319Z,8.07
2023-03-25T20:38:22.523Z,8.01
2023-03-25T20:43:23.707Z,8.01
2023-03-25T20:48:28.027Z,8.10
2023-03-25T20:53:29.230Z,8.27
2023-03-25T20:58:30.489Z,8.29
2023-03-25T21:03:32.229Z,8.38
2023-03-25T21:08:34.247Z,8.41
2023-03-25T21:13:35.651Z,8.52
2023-03-25T21:18:36.985Z,8.55
2023-03-25T21:23:42.846Z,8.55
2023-03-25T21:28:44.127Z,8.49
2023-03-25T21:33:50.048Z,8.36
2023-03-25T21:38:52.520Z,8.45
2023-03-25T21:43:53.677Z,8.63
2023-03-25T21:48:54.867Z,8.60
2023-03-25T21:53:58.366Z,8.62
2023-03-25T21:59:01.711Z,8.59
2023-03-25T22:04:03.621Z,8.63
2023-03-25T22:09:06.144Z,8.70
2023-03-25T22:14:08.007Z,8.80
2023-03-25T22:19:09.294Z,8.85
2023-03-25T22:24:10.540Z,8.90
2023-03-25T22:29:13.249Z,8.89
2023-03-25T22:34:15.135Z,8.90
2023-03-25T22:39:18.130Z,8.89
2023-03-25T22:44:19.440Z,8.87
2023-03-25T22:49:21.661Z,8.85
2023-03-25T22:54:22.884Z,8.91
2023-03-25T22:59:24.098Z,8.88
2023-03-25T23:04:25.366Z,8.89
2023-03-25T23:09:41.981Z,8.90
2023-03-25T23:14:43.371Z,8.86
2023-03-25T23:19:45.563Z,8.85
2023-03-25T23:24:46.763Z,8.86
2023-03-25T23:29:48.084Z,8.85
2023-03-25T23:34:49.308Z,8.86
2023-03-25T23:39:50.602Z,8.89
2023-03-25T23:44:51.788Z,8.90
2023-03-25T23:49:57.799Z,8.90
2023-03-25T23:54:59.052Z,8.87
